Airfield :
LOGIN :

Register | Disclaimer

   EN    FR    IT 

 










Legend :    VFR   Marginal VFR   IFR   Intensive IFR   Very Intensive IFR
Visi :
Ceiling :
>= 8 km
>= 3000ft
5 to 8 km
1000 to 3000 ft
1500m to 5 km
500 to 1000 ft
800 to 1500m
200 to 500 ft
< 800m
< 200 ft
Symbols :   Thunderstorms  Fog  Heavy snow  Heavy precipitations  Wind > 20 kt
SIGMETs :     Misc.  Thunderstorms  Icing  Turbulence  Mountain Waves  Volcanic Ashes







- Airport Elevation : 220 ft
- IATA code : CWL
- Download approach charts


EGFF - Cardiff Rhoose

CURRENT METAR :
  • 221820Z AUTO 28008KT 9999 NCD 17/12 Q1030

EXPIRED METARs :
  • 221750Z AUTO 27006KT 230V300 9999 NCD 18/11 Q1030
  • 221720Z AUTO 26007KT 220V290 9999 NCD 18/11 Q1030
  • 221650Z AUTO 24007KT 210V280 9999 NCD 18/11 Q1031
  • 221620Z AUTO 24007KT 210V270 9999 NCD 18/09 Q1031
  • 221550Z AUTO 23008KT 200V280 9999 NCD 18/09 Q1031

TAF TAF EGFF
Valid from the 22 at 18:00 until the 23 at 18:00 UTC


221700Z 2218/2318 26010KT CAVOK
BECMG 2221/2224 VRB04KT
BECMG 2312/2315 26010KT
ATIS : +44 1446 729 319
No reported NOTAMs for that airfield.



MET'MAP, your aeronautical weather chart ! - Copyright ORBIFLY December 2007 - Disclaimer

ORBIFLY MET'MAP TEAM :

Programming & Development : Alexandra Zaïnal
Concept & Development : Baudouin d'Aumeries
Co-Development & Prog : Marc-Olivier Méhu
Technical & hardware support : Manuel Goepfert

Contact : metmap@orbifly.com




SOURCES & CREDITS :

   NOAA